createdAt,value
2023-05-19T00:01:43.766Z,14.99
2023-05-19T00:03:53.880Z,14.93
2023-05-19T00:05:59.516Z,14.91
2023-05-19T00:08:04.104Z,14.89
2023-05-19T00:10:08.778Z,14.83
2023-05-19T00:12:13.954Z,14.74
2023-05-19T00:14:17.780Z,14.63
2023-05-19T00:16:22.173Z,14.55
2023-05-19T00:18:26.546Z,14.46
2023-05-19T00:20:31.553Z,14.40
2023-05-19T00:22:35.264Z,14.35
2023-05-19T00:24:38.631Z,14.26
2023-05-19T00:26:42.145Z,14.23
2023-05-19T00:28:45.493Z,13.60
2023-05-19T00:30:48.868Z,14.24
2023-05-19T00:32:52.589Z,14.26
2023-05-19T00:34:56.180Z,14.31
2023-05-19T00:37:00.946Z,14.31
2023-05-19T00:39:04.570Z,14.26
2023-05-19T00:41:08.601Z,14.19
2023-05-19T00:43:11.951Z,14.16
2023-05-19T00:45:15.351Z,14.13
2023-05-19T00:47:18.875Z,14.12
2023-05-19T00:49:22.236Z,14.07
2023-05-19T00:51:29.569Z,14.06
2023-05-19T00:53:35.706Z,14.02
2023-05-19T00:55:40.544Z,14.00
2023-05-19T00:57:45.296Z,13.95
2023-05-19T00:59:49.615Z,13.98
2023-05-19T01:01:53.956Z,13.92
2023-05-19T01:03:58.919Z,13.92
2023-05-19T01:06:04.921Z,13.94
2023-05-19T01:08:08.439Z,13.94
2023-05-19T01:10:14.646Z,13.94
2023-05-19T01:12:18.351Z,13.94
2023-05-19T01:14:22.188Z,13.87
2023-05-19T01:16:32.048Z,13.77
2023-05-19T01:18:45.593Z,13.73
2023-05-19T01:20:53.201Z,13.70
2023-05-19T01:23:21.482Z,13.69
2023-05-19T01:25:47.115Z,13.70
2023-05-19T01:28:20.728Z,13.65
2023-05-19T01:30:31.268Z,13.65
2023-05-19T01:32:35.859Z,13.58
2023-05-19T01:34:44.546Z,13.56
2023-05-19T01:36:49.914Z,13.53
2023-05-19T01:38:57.112Z,13.52
2023-05-19T01:41:01.566Z,13.46
2023-05-19T01:43:05.807Z,13.40
2023-05-19T01:45:11.313Z,13.27
2023-05-19T01:47:17.066Z,13.29
2023-05-19T01:49:20.699Z,13.31
2023-05-19T01:51:24.191Z,13.31
2023-05-19T01:53:27.729Z,13.34
2023-05-19T01:55:31.327Z,13.37
2023-05-19T01:57:44.184Z,13.34
2023-05-19T01:59:58.904Z,13.32
2023-05-19T02:02:09.377Z,13.25
2023-05-19T02:04:26.182Z,13.19
2023-05-19T02:06:38.009Z,13.23
2023-05-19T02:08:45.281Z,13.24
2023-05-19T02:10:56.277Z,13.19
2023-05-19T02:13:06.211Z,13.17
2023-05-19T02:15:15.331Z,13.08
2023-05-19T02:17:21.267Z,13.06
2023-05-19T02:19:28.429Z,13.07
2023-05-19T02:21:32.707Z,13.05
2023-05-19T02:23:36.074Z,13.04
2023-05-19T02:25:39.521Z,12.99
2023-05-19T02:27:43.199Z,12.91
2023-05-19T02:29:46.588Z,12.81
2023-05-19T02:31:50.040Z,12.77
2023-05-19T02:33:53.399Z,12.81
2023-05-19T02:35:58.377Z,12.64
2023-05-19T02:38:01.862Z,12.64
2023-05-19T02:40:07.105Z,12.64
2023-05-19T02:42:10.810Z,12.56
2023-05-19T02:44:14.256Z,12.54
2023-05-19T02:46:17.704Z,12.53
2023-05-19T02:48:21.146Z,12.61
2023-05-19T02:50:24.512Z,12.62
2023-05-19T02:52:29.262Z,12.54
2023-05-19T02:54:33.441Z,12.48
2023-05-19T02:56:37.164Z,12.46
2023-05-19T02:58:43.027Z,12.44
2023-05-19T03:00:46.389Z,12.43
2023-05-19T03:02:49.960Z,12.49
2023-05-19T03:04:53.612Z,12.55
2023-05-19T03:06:57.348Z,12.52
2023-05-19T03:09:02.084Z,12.42
2023-05-19T03:11:05.564Z,12.38
2023-05-19T03:13:08.937Z,12.42
2023-05-19T03:15:15.010Z,12.46
2023-05-19T03:17:18.707Z,12.37
2023-05-19T03:19:24.550Z,12.39
2023-05-19T03:21:28.174Z,12.44
2023-05-19T03:23:31.625Z,12.38
2023-05-19T03:25:36.380Z,12.35
2023-05-19T03:27:40.015Z,12.17
2023-05-19T03:29:43.411Z,12.37
2023-05-19T03:31:47.097Z,12.36
2023-05-19T03:33:52.557Z,12.34
2023-05-19T03:35:57.618Z,12.22
2023-05-19T03:38:01.496Z,12.13
2023-05-19T03:40:06.045Z,12.09
2023-05-19T03:42:13.801Z,12.11
2023-05-19T03:44:17.233Z,12.15
2023-05-19T03:46:21.477Z,12.23
2023-05-19T03:48:56.176Z,12.21
2023-05-19T03:51:34.994Z,12.08
2023-05-19T03:53:48.631Z,12.10
2023-05-19T03:55:52.150Z,12.16
2023-05-19T03:57:57.125Z,12.17
2023-05-19T04:00:00.529Z,12.15
2023-05-19T04:02:04.094Z,11.90
2023-05-19T04:04:07.569Z,12.10
2023-05-19T04:06:11.184Z,12.15
2023-05-19T04:08:14.513Z,12.18
2023-05-19T04:10:17.913Z,12.14
2023-05-19T04:12:21.299Z,12.14
2023-05-19T04:14:26.066Z,12.15
2023-05-19T04:16:33.264Z,12.12
2023-05-19T04:18:36.843Z,12.16
2023-05-19T04:20:45.820Z,12.16
2023-05-19T04:22:49.313Z,12.17
2023-05-19T04:24:53.033Z,12.24
2023-05-19T04:26:56.771Z,12.27
2023-05-19T04:29:00.490Z,12.28
2023-05-19T04:31:10.563Z,12.19
2023-05-19T04:33:14.070Z,12.33
2023-05-19T04:35:19.447Z,12.35
2023-05-19T04:37:24.162Z,12.32
2023-05-19T04:39:27.638Z,12.35
2023-05-19T04:41:31.539Z,12.36
2023-05-19T04:43:35.218Z,12.33
2023-05-19T04:45:42.390Z,12.35
2023-05-19T04:47:49.108Z,12.32
2023-05-19T04:49:55.643Z,12.28
2023-05-19T04:51:59.302Z,12.17
2023-05-19T04:54:06.279Z,12.27
2023-05-19T04:56:13.727Z,12.29
2023-05-19T04:58:18.414Z,12.28
2023-05-19T05:00:22.797Z,12.29
2023-05-19T05:02:32.086Z,12.29
2023-05-19T05:04:40.501Z,12.35
2023-05-19T05:06:47.796Z,12.40
2023-05-19T05:08:52.310Z,12.46
2023-05-19T05:10:56.454Z,12.55
2023-05-19T05:13:01.153Z,12.63
2023-05-19T05:15:06.902Z,12.65
2023-05-19T05:17:12.760Z,12.69
2023-05-19T05:19:18.844Z,12.70
2023-05-19T05:21:24.283Z,12.69
2023-05-19T05:23:28.349Z,12.82
2023-05-19T05:25:33.983Z,12.85
2023-05-19T05:27:37.899Z,12.86
2023-05-19T05:29:43.422Z,12.90
2023-05-19T05:31:46.892Z,12.91
2023-05-19T05:33:50.376Z,12.90
2023-05-19T05:35:57.330Z,12.93
2023-05-19T05:38:03.433Z,13.03
2023-05-19T05:40:08.422Z,13.03
2023-05-19T05:42:12.605Z,13.01
2023-05-19T05:44:17.174Z,12.99
2023-05-19T05:46:21.794Z,12.96
2023-05-19T05:48:25.796Z,13.07
2023-05-19T05:50:29.973Z,13.14
2023-05-19T05:52:34.128Z,13.21
2023-05-19T05:54:40.040Z,13.23
2023-05-19T05:56:44.930Z,13.22
2023-05-19T05:58:49.493Z,13.16
2023-05-19T06:00:55.232Z,13.43
2023-05-19T06:02:59.172Z,13.39
2023-05-19T06:05:03.678Z,12.68
2023-05-19T06:07:10.089Z,13.17
2023-05-19T06:09:15.124Z,13.23
2023-05-19T06:11:21.899Z,13.36
2023-05-19T06:13:26.087Z,13.27
2023-05-19T06:15:29.644Z,13.35
2023-05-19T06:17:37.943Z,13.47
2023-05-19T06:19:41.345Z,13.54
2023-05-19T06:21:44.751Z,13.58
2023-05-19T06:23:48.577Z,13.66
2023-05-19T06:25:52.047Z,13.68
2023-05-19T06:27:57.251Z,13.78
2023-05-19T06:30:00.877Z,14.16
2023-05-19T06:32:08.995Z,14.34
2023-05-19T06:34:14.901Z,14.46
2023-05-19T06:36:18.712Z,14.35
2023-05-19T06:38:25.377Z,14.34
2023-05-19T06:40:31.198Z,14.37
2023-05-19T06:42:35.058Z,14.42
2023-05-19T06:44:54.198Z,14.49
2023-05-19T06:46:57.706Z,14.45
2023-05-19T06:49:01.446Z,14.46
2023-05-19T06:51:10.144Z,14.51
2023-05-19T06:53:15.405Z,14.59
2023-05-19T06:55:19.860Z,14.47
2023-05-19T06:57:25.752Z,14.57
2023-05-19T06:59:29.652Z,14.48
2023-05-19T07:01:34.530Z,14.45
2023-05-19T07:03:38.751Z,14.51
2023-05-19T07:05:42.641Z,14.56
2023-05-19T07:07:47.050Z,14.65
2023-05-19T07:09:54.770Z,14.69
2023-05-19T07:11:58.373Z,14.72
2023-05-19T07:14:01.900Z,14.82
2023-05-19T07:16:08.230Z,14.87
2023-05-19T07:18:13.133Z,14.76
2023-05-19T07:20:16.967Z,14.79
2023-05-19T07:22:21.008Z,14.88
2023-05-19T07:24:24.976Z,15.01
2023-05-19T07:26:28.447Z,15.09
2023-05-19T07:28:31.851Z,15.11
2023-05-19T07:30:35.370Z,15.13
2023-05-19T07:32:39.035Z,15.11
2023-05-19T07:34:43.780Z,15.24
2023-05-19T07:36:47.338Z,15.18
2023-05-19T07:38:51.152Z,15.34
2023-05-19T07:40:54.490Z,15.45
2023-05-19T07:42:57.852Z,15.47
2023-05-19T07:45:03.126Z,15.46
2023-05-19T07:47:07.064Z,15.57
2023-05-19T07:49:10.448Z,15.66
2023-05-19T07:51:16.153Z,15.68
2023-05-19T07:53:19.829Z,15.75
2023-05-19T07:55:23.739Z,15.74
2023-05-19T07:57:27.341Z,15.70
2023-05-19T07:59:30.745Z,15.70
2023-05-19T08:01:34.167Z,15.88
2023-05-19T08:03:37.964Z,15.95
2023-05-19T08:05:41.457Z,16.14
2023-05-19T08:07:46.161Z,16.19
2023-05-19T08:09:49.628Z,16.21
2023-05-19T08:11:52.941Z,16.20
2023-05-19T08:13:56.365Z,16.26
2023-05-19T08:16:00.714Z,16.34
2023-05-19T08:18:05.280Z,16.33
2023-05-19T08:20:10.246Z,16.06
2023-05-19T08:22:13.679Z,16.28
2023-05-19T08:24:18.415Z,16.36
2023-05-19T08:26:22.817Z,16.19
2023-05-19T08:28:26.503Z,16.33
2023-05-19T08:30:30.140Z,16.41
2023-05-19T08:32:33.570Z,15.89
2023-05-19T08:34:37.156Z,16.59
2023-05-19T08:36:40.831Z,16.68
2023-05-19T08:38:44.244Z,16.80
2023-05-19T08:40:49.203Z,16.94
2023-05-19T08:42:52.568Z,17.02
2023-05-19T08:44:55.998Z,17.08
2023-05-19T08:47:03.784Z,17.12
2023-05-19T08:49:13.111Z,17.21
2023-05-19T08:51:24.694Z,17.15
2023-05-19T08:53:34.651Z,17.18
2023-05-19T08:55:44.936Z,17.23
2023-05-19T08:57:50.823Z,17.30
2023-05-19T08:59:55.843Z,17.23
2023-05-19T09:01:59.907Z,17.19
2023-05-19T09:04:04.447Z,17.11
2023-05-19T09:06:08.960Z,17.09
2023-05-19T09:08:12.512Z,17.09
2023-05-19T09:10:16.389Z,17.12
2023-05-19T09:12:19.864Z,17.22
2023-05-19T09:14:24.662Z,17.32
2023-05-19T09:16:30.232Z,17.41
2023-05-19T09:18:33.962Z,17.58
2023-05-19T09:20:41.702Z,17.68
2023-05-19T09:22:47.334Z,17.15
2023-05-19T09:24:51.007Z,17.86
2023-05-19T09:26:57.931Z,18.03
2023-05-19T09:29:03.569Z,18.20
2023-05-19T09:31:09.572Z,18.37
2023-05-19T09:33:18.388Z,18.64
2023-05-19T09:35:21.855Z,18.76
2023-05-19T09:37:25.816Z,18.82
2023-05-19T09:39:29.699Z,18.90
2023-05-19T09:41:34.340Z,19.11
2023-05-19T09:43:37.751Z,19.26
2023-05-19T09:45:41.113Z,19.19
2023-05-19T09:47:46.059Z,19.18
2023-05-19T09:49:50.251Z,19.31
2023-05-19T09:51:55.665Z,19.52
2023-05-19T09:53:59.665Z,19.70
2023-05-19T09:56:04.395Z,19.71
2023-05-19T09:58:08.069Z,19.85
2023-05-19T10:00:15.680Z,19.93
2023-05-19T10:02:22.024Z,20.03
2023-05-19T10:04:29.526Z,20.02
2023-05-19T10:06:33.181Z,19.94
2023-05-19T10:08:38.685Z,19.80
2023-05-19T10:10:42.763Z,19.91
2023-05-19T10:12:47.005Z,20.15
2023-05-19T10:14:52.988Z,20.34
2023-05-19T10:16:57.875Z,20.45
2023-05-19T10:19:02.556Z,20.30
2023-05-19T10:21:09.149Z,20.36
2023-05-19T10:23:12.617Z,20.50
2023-05-19T10:25:18.616Z,20.48
2023-05-19T10:27:23.187Z,20.54
2023-05-19T10:29:32.869Z,20.49
2023-05-19T10:31:37.406Z,20.59
2023-05-19T10:34:15.982Z,20.69
2023-05-19T10:36:38.272Z,20.58
2023-05-19T10:38:49.027Z,20.75
2023-05-19T10:41:01.635Z,20.34
2023-05-19T10:43:20.790Z,20.82
2023-05-19T10:45:28.126Z,20.95
2023-05-19T10:47:32.437Z,21.12
2023-05-19T10:49:36.449Z,21.03
2023-05-19T10:51:41.100Z,20.99
2023-05-19T10:53:49.951Z,20.89
2023-05-19T10:55:55.952Z,20.78
2023-05-19T10:58:00.411Z,20.90
2023-05-19T11:00:11.673Z,21.10
2023-05-19T11:02:40.991Z,20.95
2023-05-19T11:04:51.268Z,21.02
2023-05-19T11:06:57.789Z,21.12
2023-05-19T11:09:05.383Z,21.41
2023-05-19T11:11:16.209Z,21.76
2023-05-19T11:13:23.059Z,21.28
2023-05-19T11:15:28.176Z,21.44
2023-05-19T11:17:33.092Z,21.64
2023-05-19T11:19:36.928Z,21.50
2023-05-19T11:21:49.076Z,21.31
2023-05-19T11:23:54.008Z,21.03
2023-05-19T11:25:57.875Z,20.90
2023-05-19T11:28:01.361Z,20.88
2023-05-19T11:30:14.349Z,20.98
2023-05-19T11:32:18.195Z,21.09
2023-05-19T11:34:21.802Z,21.64
2023-05-19T11:36:25.842Z,21.91
2023-05-19T11:38:30.248Z,22.11
2023-05-19T11:40:35.172Z,22.02
2023-05-19T11:42:38.521Z,22.28
2023-05-19T11:44:42.766Z,22.17
2023-05-19T11:46:46.468Z,21.89
2023-05-19T11:48:50.494Z,21.89
2023-05-19T11:50:54.419Z,22.00
2023-05-19T11:52:57.974Z,22.31
2023-05-19T11:55:01.741Z,22.34
2023-05-19T11:57:09.148Z,22.30
2023-05-19T11:59:12.781Z,22.20
2023-05-19T12:01:34.973Z,22.15
2023-05-19T12:03:38.680Z,22.51
2023-05-19T12:05:46.059Z,22.50
2023-05-19T12:07:51.476Z,22.58
2023-05-19T12:09:56.492Z,22.77
2023-05-19T12:11:59.947Z,22.79
2023-05-19T12:14:04.777Z,22.97
2023-05-19T12:16:09.730Z,23.13
2023-05-19T12:18:13.130Z,23.27
2023-05-19T12:20:16.920Z,23.16
2023-05-19T12:22:20.982Z,23.31
2023-05-19T12:24:24.449Z,23.45
2023-05-19T12:26:28.279Z,23.63
2023-05-19T12:28:32.091Z,23.65
2023-05-19T12:30:37.086Z,23.53
2023-05-19T12:32:40.969Z,23.52
2023-05-19T12:34:44.402Z,23.47
2023-05-19T12:36:47.791Z,23.52
2023-05-19T12:38:54.964Z,23.40
2023-05-19T12:40:59.701Z,23.34
2023-05-19T12:43:03.025Z,23.52
2023-05-19T12:45:07.331Z,23.80
2023-05-19T12:47:13.051Z,23.73
2023-05-19T12:49:17.051Z,23.57
2023-05-19T12:51:20.934Z,23.77
2023-05-19T12:53:28.244Z,23.95
2023-05-19T12:55:31.684Z,24.35
2023-05-19T12:57:36.159Z,24.51
2023-05-19T12:59:39.587Z,24.66
2023-05-19T13:01:42.937Z,24.81
2023-05-19T13:03:49.262Z,24.60
2023-05-19T13:05:53.447Z,24.76
2023-05-19T13:07:58.382Z,24.68
2023-05-19T13:10:01.721Z,24.71
2023-05-19T13:12:05.617Z,24.75
2023-05-19T13:14:09.010Z,24.80
2023-05-19T13:16:13.475Z,24.70
2023-05-19T13:18:17.189Z,24.85
2023-05-19T13:20:22.137Z,24.84
2023-05-19T13:22:25.522Z,24.38
2023-05-19T13:24:28.947Z,23.94
2023-05-19T13:26:32.357Z,23.67
2023-05-19T13:28:35.946Z,23.58
2023-05-19T13:30:41.443Z,23.46
2023-05-19T13:32:45.329Z,23.40
2023-05-19T13:34:48.969Z,23.39
2023-05-19T13:36:53.731Z,23.69
2023-05-19T13:38:57.169Z,24.02
2023-05-19T13:41:01.686Z,24.41
2023-05-19T13:43:05.940Z,24.50
2023-05-19T13:45:10.640Z,24.69
2023-05-19T13:47:15.107Z,25.02
2023-05-19T13:49:18.677Z,24.73
2023-05-19T13:51:22.132Z,25.16
2023-05-19T13:53:27.338Z,25.22
2023-05-19T13:55:30.895Z,25.28
2023-05-19T13:57:34.288Z,25.03
2023-05-19T13:59:45.844Z,24.81
2023-05-19T14:01:56.879Z,24.64
2023-05-19T14:04:01.207Z,24.44
2023-05-19T14:06:04.968Z,24.55
2023-05-19T14:08:08.375Z,24.81
2023-05-19T14:10:13.289Z,24.61
2023-05-19T14:12:16.712Z,24.67
2023-05-19T14:14:20.413Z,25.08
2023-05-19T14:16:26.139Z,25.46
2023-05-19T14:18:29.474Z,25.61
2023-05-19T14:20:33.358Z,25.67
2023-05-19T14:22:36.917Z,25.79
2023-05-19T14:24:41.484Z,26.01
2023-05-19T14:26:46.532Z,26.08
2023-05-19T14:28:51.320Z,25.88
2023-05-19T14:30:54.608Z,25.38
2023-05-19T14:32:58.071Z,25.35
2023-05-19T14:35:01.973Z,24.94
2023-05-19T14:37:05.651Z,25.74
2023-05-19T14:39:09.019Z,25.74
2023-05-19T14:41:12.432Z,25.87
2023-05-19T14:43:17.282Z,26.22
2023-05-19T14:45:20.619Z,26.27
2023-05-19T14:47:25.693Z,25.44
2023-05-19T14:49:29.820Z,25.87
2023-05-19T14:51:33.394Z,25.72
2023-05-19T14:53:36.782Z,25.83
2023-05-19T14:55:40.128Z,25.72
2023-05-19T14:57:43.592Z,25.77
2023-05-19T14:59:48.453Z,25.93
2023-05-19T15:01:51.814Z,26.22
2023-05-19T15:03:55.266Z,26.11
2023-05-19T15:05:58.619Z,25.91
2023-05-19T15:08:02.284Z,25.63
2023-05-19T15:10:10.678Z,25.64
2023-05-19T15:12:14.156Z,25.63
2023-05-19T15:14:17.644Z,25.37
2023-05-19T15:16:22.352Z,24.95
2023-05-19T15:18:26.046Z,24.81
2023-05-19T15:20:29.680Z,24.77
2023-05-19T15:22:33.257Z,25.10
2023-05-19T15:24:36.782Z,25.50
2023-05-19T15:26:40.231Z,25.71
2023-05-19T15:28:43.555Z,25.53
2023-05-19T15:30:47.101Z,25.47
2023-05-19T15:32:51.938Z,25.35
2023-05-19T15:34:55.693Z,25.17
2023-05-19T15:36:59.029Z,24.79
2023-05-19T15:39:03.633Z,25.21
2023-05-19T15:41:08.634Z,25.44
2023-05-19T15:43:12.019Z,25.58
2023-05-19T15:45:15.344Z,25.50
2023-05-19T15:47:18.917Z,25.58
2023-05-19T15:49:25.054Z,25.66
2023-05-19T15:51:29.251Z,25.68
2023-05-19T15:53:32.697Z,25.48
2023-05-19T15:55:36.100Z,25.59
2023-05-19T15:57:39.491Z,25.54
2023-05-19T15:59:42.878Z,25.45
2023-05-19T16:01:47.757Z,25.35
2023-05-19T16:03:51.272Z,25.68
2023-05-19T16:05:56.463Z,25.75
2023-05-19T16:07:59.954Z,24.87
2023-05-19T16:10:03.331Z,25.47
2023-05-19T16:12:07.582Z,25.41
2023-05-19T16:14:10.983Z,25.44
2023-05-19T16:16:14.363Z,25.38
2023-05-19T16:18:17.752Z,24.92
2023-05-19T16:20:26.596Z,25.72
2023-05-19T16:22:31.242Z,25.72
2023-05-19T16:24:34.567Z,25.65
2023-05-19T16:26:37.944Z,25.74
2023-05-19T16:28:41.292Z,25.50
2023-05-19T16:30:44.642Z,25.52
2023-05-19T16:32:48.048Z,25.63
2023-05-19T16:34:51.542Z,25.33
2023-05-19T16:36:54.866Z,25.28
2023-05-19T16:39:02.776Z,25.10
2023-05-19T16:41:07.622Z,25.37
2023-05-19T16:43:10.980Z,25.38
2023-05-19T16:45:17.343Z,25.51
2023-05-19T16:47:20.876Z,25.70
2023-05-19T16:49:24.268Z,25.85
2023-05-19T16:51:27.742Z,25.87
2023-05-19T16:53:31.969Z,25.88
2023-05-19T16:55:36.611Z,25.74
2023-05-19T16:57:39.956Z,25.67
2023-05-19T16:59:43.671Z,25.67
2023-05-19T17:01:47.189Z,25.74
2023-05-19T17:03:50.732Z,25.77
2023-05-19T17:05:54.225Z,25.72
2023-05-19T17:07:57.595Z,25.73
2023-05-19T17:10:00.986Z,25.72
2023-05-19T17:12:06.471Z,25.61
2023-05-19T17:14:10.040Z,25.61
2023-05-19T17:16:13.506Z,25.50
2023-05-19T17:18:16.968Z,25.50
2023-05-19T17:20:20.344Z,25.41
2023-05-19T17:22:23.720Z,25.31
2023-05-19T17:24:28.820Z,25.21
2023-05-19T17:26:32.198Z,25.14
2023-05-19T17:28:36.852Z,25.18
2023-05-19T17:30:40.782Z,25.17
2023-05-19T17:32:44.269Z,25.12
2023-05-19T17:34:47.771Z,25.12
2023-05-19T17:36:51.234Z,25.05
2023-05-19T17:38:54.599Z,24.97
2023-05-19T17:40:58.788Z,24.77
2023-05-19T17:43:02.180Z,24.85
2023-05-19T17:45:08.341Z,24.94
2023-05-19T17:47:13.008Z,25.02
2023-05-19T17:49:16.469Z,24.99
2023-05-19T17:51:21.110Z,24.87
2023-05-19T17:53:24.998Z,24.69
2023-05-19T17:55:30.948Z,24.58
2023-05-19T17:57:36.143Z,24.55
2023-05-19T17:59:40.172Z,24.25
2023-05-19T18:01:45.453Z,24.19
2023-05-19T18:03:50.081Z,24.37
2023-05-19T18:05:54.029Z,24.34
2023-05-19T18:07:58.349Z,24.35
2023-05-19T18:10:02.349Z,24.23
2023-05-19T18:12:06.726Z,24.27
2023-05-19T18:14:10.035Z,24.14
2023-05-19T18:16:13.869Z,23.97
2023-05-19T18:18:18.584Z,23.75
2023-05-19T18:20:21.986Z,23.64
2023-05-19T18:22:25.412Z,23.59
2023-05-19T18:24:28.867Z,23.47
2023-05-19T18:26:33.013Z,23.39
2023-05-19T18:28:38.218Z,23.27
2023-05-19T18:30:41.935Z,22.01
2023-05-19T18:32:45.564Z,23.43
2023-05-19T18:34:50.307Z,23.39
2023-05-19T18:36:53.684Z,23.42
2023-05-19T18:38:58.186Z,23.38
2023-05-19T18:41:01.722Z,23.35
2023-05-19T18:43:05.051Z,23.24
2023-05-19T18:45:09.264Z,23.13
2023-05-19T18:47:12.578Z,22.97
2023-05-19T18:49:16.365Z,22.88
2023-05-19T18:51:21.767Z,22.67
2023-05-19T18:53:25.379Z,22.52
2023-05-19T18:55:28.745Z,22.40
2023-05-19T18:57:32.245Z,22.37
2023-05-19T18:59:35.784Z,22.35
2023-05-19T19:01:39.300Z,22.12
2023-05-19T19:03:43.679Z,22.26
2023-05-19T19:05:47.771Z,21.93
2023-05-19T19:07:53.295Z,22.14
2023-05-19T19:09:56.743Z,22.04
2023-05-19T19:12:00.082Z,21.96
2023-05-19T19:14:03.430Z,22.03
2023-05-19T19:16:07.728Z,21.99
2023-05-19T19:18:11.311Z,22.00
2023-05-19T19:20:15.127Z,21.95
2023-05-19T19:22:18.605Z,21.86
2023-05-19T19:24:23.308Z,21.83
2023-05-19T19:26:28.847Z,21.72
2023-05-19T19:28:32.263Z,21.68
2023-05-19T19:30:35.905Z,21.61
2023-05-19T19:32:39.504Z,21.52
2023-05-19T19:34:42.927Z,21.42
2023-05-19T19:36:47.744Z,21.39
2023-05-19T19:38:51.112Z,21.34
2023-05-19T19:40:55.872Z,21.24
2023-05-19T19:42:59.374Z,21.18
2023-05-19T19:45:02.915Z,21.21
2023-05-19T19:47:06.834Z,21.19
2023-05-19T19:49:10.484Z,21.12
2023-05-19T19:51:14.025Z,21.17
2023-05-19T19:53:17.661Z,21.19
2023-05-19T19:55:21.076Z,21.27
2023-05-19T19:57:26.882Z,21.30
2023-05-19T19:59:30.611Z,21.27
2023-05-19T20:01:34.086Z,21.22
2023-05-19T20:03:38.169Z,20.84
2023-05-19T20:05:41.813Z,21.02
2023-05-19T20:07:45.404Z,20.98
2023-05-19T20:09:50.784Z,20.99
2023-05-19T20:11:54.594Z,20.97
2023-05-19T20:13:59.401Z,20.88
2023-05-19T20:16:03.017Z,20.78
2023-05-19T20:18:06.623Z,20.78
2023-05-19T20:20:12.160Z,20.78
2023-05-19T20:22:16.094Z,20.83
2023-05-19T20:24:19.524Z,20.85
2023-05-19T20:26:23.590Z,20.81
2023-05-19T20:28:27.441Z,20.78
2023-05-19T20:30:32.381Z,20.72
2023-05-19T20:32:36.001Z,20.82
2023-05-19T20:34:39.562Z,20.55
2023-05-19T20:36:42.878Z,21.03
2023-05-19T20:38:47.881Z,20.96
2023-05-19T20:40:51.267Z,20.17
2023-05-19T20:42:54.623Z,20.95
2023-05-19T20:44:58.389Z,20.73
2023-05-19T20:47:04.195Z,20.94
2023-05-19T20:49:07.647Z,21.01
2023-05-19T20:51:11.018Z,21.04
2023-05-19T20:53:14.354Z,20.99
2023-05-19T20:55:17.921Z,20.94
2023-05-19T20:57:21.396Z,20.85
2023-05-19T20:59:24.836Z,20.83
2023-05-19T21:01:29.794Z,20.80
2023-05-19T21:03:34.851Z,20.75
2023-05-19T21:05:38.311Z,20.58
2023-05-19T21:07:41.697Z,20.63
2023-05-19T21:09:46.545Z,20.62
2023-05-19T21:11:53.081Z,20.57
2023-05-19T21:13:56.612Z,20.49
2023-05-19T21:15:59.978Z,20.40
2023-05-19T21:18:03.673Z,20.34
2023-05-19T21:20:10.440Z,20.35
2023-05-19T21:22:13.907Z,20.22
2023-05-19T21:24:17.895Z,20.33
2023-05-19T21:26:21.662Z,20.30
2023-05-19T21:28:25.253Z,20.05
2023-05-19T21:30:28.791Z,20.23
2023-05-19T21:32:32.294Z,20.15
2023-05-19T21:34:36.019Z,20.10
2023-05-19T21:36:40.814Z,20.05
2023-05-19T21:38:44.196Z,20.11
2023-05-19T21:40:48.158Z,20.10
2023-05-19T21:42:51.636Z,20.06
2023-05-19T21:44:55.196Z,19.95
2023-05-19T21:46:58.755Z,19.79
2023-05-19T21:49:02.418Z,20.04
2023-05-19T21:51:06.270Z,20.15
2023-05-19T21:53:11.045Z,20.19
2023-05-19T21:55:14.424Z,20.14
2023-05-19T21:57:17.762Z,20.09
2023-05-19T21:59:23.152Z,20.06
2023-05-19T22:01:26.599Z,19.95
2023-05-19T22:03:30.094Z,19.84
2023-05-19T22:05:35.127Z,19.71
2023-05-19T22:07:39.008Z,19.41
2023-05-19T22:09:43.816Z,19.67
2023-05-19T22:11:47.202Z,19.70
2023-05-19T22:13:50.615Z,19.64
2023-05-19T22:15:53.967Z,19.63
2023-05-19T22:17:57.521Z,19.60
2023-05-19T22:20:01.093Z,19.59
2023-05-19T22:22:13.097Z,19.53
2023-05-19T22:24:18.522Z,19.47
2023-05-19T22:26:23.269Z,19.45
2023-05-19T22:28:27.133Z,19.45
2023-05-19T22:30:30.718Z,19.49
2023-05-19T22:32:35.146Z,19.49
2023-05-19T22:34:39.221Z,19.42
2023-05-19T22:36:44.217Z,19.36
2023-05-19T22:38:47.706Z,19.24
2023-05-19T22:40:51.234Z,19.14
2023-05-19T22:42:55.911Z,19.11
2023-05-19T22:44:59.282Z,19.12
2023-05-19T22:47:02.802Z,19.09
2023-05-19T22:49:06.298Z,19.08
2023-05-19T22:51:09.716Z,18.96
2023-05-19T22:53:13.039Z,18.97
2023-05-19T22:55:16.517Z,19.03
2023-05-19T22:57:20.125Z,19.04
2023-05-19T22:59:24.922Z,19.05
2023-05-19T23:01:28.654Z,18.98
2023-05-19T23:03:32.256Z,18.96
2023-05-19T23:05:36.021Z,18.89
2023-05-19T23:07:39.508Z,18.87
2023-05-19T23:09:42.826Z,18.88
2023-05-19T23:11:46.240Z,18.83
2023-05-19T23:13:49.618Z,18.56
2023-05-19T23:15:54.360Z,18.74
2023-05-19T23:17:57.788Z,18.74
2023-05-19T23:20:01.215Z,18.75
2023-05-19T23:22:04.706Z,18.76
2023-05-19T23:24:08.161Z,18.73
2023-05-19T23:26:13.285Z,18.67
2023-05-19T23:28:16.947Z,18.68
2023-05-19T23:30:20.604Z,18.66
2023-05-19T23:32:25.339Z,18.64
2023-05-19T23:34:28.716Z,18.60
2023-05-19T23:36:32.324Z,18.60
2023-05-19T23:38:35.758Z,18.61
2023-05-19T23:40:39.099Z,18.59
2023-05-19T23:42:44.454Z,18.58
2023-05-19T23:44:47.834Z,18.56
2023-05-19T23:46:51.429Z,18.54
2023-05-19T23:48:56.260Z,18.45
2023-05-19T23:50:59.714Z,18.46
2023-05-19T23:53:03.217Z,18.48
2023-05-19T23:55:07.701Z,18.46
2023-05-19T23:57:11.096Z,18.45
2023-05-19T23:59:14.550Z,18.43
